sensor_id;sensor_type;location;lat;lon;timestamp;P1;durP1;ratioP1;P2;durP2;ratioP2
80776;SDS011;70169;51.262;6.336;2023-08-06T00:00:05;2.67;;;1.73;;
80776;SDS011;70169;51.262;6.336;2023-08-06T00:02:21;2.70;;;1.38;;
80776;SDS011;70169;51.262;6.336;2023-08-06T00:04:36;3.10;;;1.60;;
80776;SDS011;70169;51.262;6.336;2023-08-06T00:06:51;2.80;;;1.33;;
80776;SDS011;70169;51.262;6.336;2023-08-06T00:09:06;3.17;;;1.70;;
80776;SDS011;70169;51.262;6.336;2023-08-06T00:11:22;4.13;;;1.70;;
80776;SDS011;70169;51.262;6.336;2023-08-06T00:13:37;2.97;;;1.48;;
80776;SDS011;70169;51.262;6.336;2023-08-06T00:15:52;3.37;;;1.83;;
80776;SDS011;70169;51.262;6.336;2023-08-06T00:18:08;2.63;;;1.50;;
80776;SDS011;70169;51.262;6.336;2023-08-06T00:20:23;2.53;;;1.50;;
80776;SDS011;70169;51.262;6.336;2023-08-06T00:22:38;2.80;;;1.45;;
80776;SDS011;70169;51.262;6.336;2023-08-06T00:24:54;3.13;;;1.70;;
80776;SDS011;70169;51.262;6.336;2023-08-06T00:27:12;3.45;;;1.70;;
80776;SDS011;70169;51.262;6.336;2023-08-06T00:29:27;3.53;;;1.50;;
80776;SDS011;70169;51.262;6.336;2023-08-06T00:31:43;2.70;;;1.60;;
80776;SDS011;70169;51.262;6.336;2023-08-06T00:33:58;3.07;;;1.47;;
80776;SDS011;70169;51.262;6.336;2023-08-06T00:36:13;3.43;;;1.80;;
80776;SDS011;70169;51.262;6.336;2023-08-06T00:38:28;3.67;;;1.80;;
80776;SDS011;70169;51.262;6.336;2023-08-06T00:40:44;4.20;;;1.63;;
80776;SDS011;70169;51.262;6.336;2023-08-06T00:42:59;3.83;;;1.77;;
80776;SDS011;70169;51.262;6.336;2023-08-06T00:45:14;3.23;;;1.47;;
80776;SDS011;70169;51.262;6.336;2023-08-06T00:47:30;3.10;;;1.73;;
80776;SDS011;70169;51.262;6.336;2023-08-06T00:49:46;2.58;;;1.50;;
80776;SDS011;70169;51.262;6.336;2023-08-06T00:52:02;3.80;;;1.85;;
80776;SDS011;70169;51.262;6.336;2023-08-06T00:54:19;2.70;;;1.58;;
80776;SDS011;70169;51.262;6.336;2023-08-06T00:56:34;3.13;;;1.80;;
80776;SDS011;70169;51.262;6.336;2023-08-06T00:58:53;2.83;;;1.63;;
80776;SDS011;70169;51.262;6.336;2023-08-06T01:01:08;3.20;;;1.98;;
80776;SDS011;70169;51.262;6.336;2023-08-06T01:03:24;4.43;;;2.00;;
80776;SDS011;70169;51.262;6.336;2023-08-06T01:05:39;3.73;;;1.80;;
80776;SDS011;70169;51.262;6.336;2023-08-06T01:11:13;3.30;;;1.67;;
80776;SDS011;70169;51.262;6.336;2023-08-06T01:16:04;4.43;;;1.77;;
80776;SDS011;70169;51.262;6.336;2023-08-06T01:18:20;2.83;;;1.65;;
80776;SDS011;70169;51.262;6.336;2023-08-06T01:20:36;2.40;;;1.40;;
80776;SDS011;70169;51.262;6.336;2023-08-06T01:22:51;3.43;;;1.60;;
80776;SDS011;70169;51.262;6.336;2023-08-06T01:25:06;3.30;;;1.70;;
80776;SDS011;70169;51.262;6.336;2023-08-06T01:27:32;4.15;;;1.70;;
80776;SDS011;70169;51.262;6.336;2023-08-06T01:29:55;3.85;;;1.90;;
80776;SDS011;70169;51.262;6.336;2023-08-06T01:32:14;2.65;;;1.70;;
80776;SDS011;70169;51.262;6.336;2023-08-06T01:34:31;2.67;;;1.40;;
80776;SDS011;70169;51.262;6.336;2023-08-06T01:36:49;2.80;;;1.50;;
80776;SDS011;70169;51.262;6.336;2023-08-06T01:41:21;2.90;;;1.67;;
80776;SDS011;70169;51.262;6.336;2023-08-06T01:43:36;3.40;;;1.77;;
80776;SDS011;70169;51.262;6.336;2023-08-06T01:45:51;3.27;;;1.60;;
80776;SDS011;70169;51.262;6.336;2023-08-06T01:48:07;2.87;;;1.50;;
80776;SDS011;70169;51.262;6.336;2023-08-06T01:50:22;3.20;;;1.50;;
80776;SDS011;70169;51.262;6.336;2023-08-06T01:52:37;3.90;;;1.80;;
80776;SDS011;70169;51.262;6.336;2023-08-06T01:54:53;3.03;;;1.70;;
80776;SDS011;70169;51.262;6.336;2023-08-06T01:57:09;2.50;;;1.42;;
80776;SDS011;70169;51.262;6.336;2023-08-06T01:59:24;2.70;;;1.50;;
80776;SDS011;70169;51.262;6.336;2023-08-06T02:01:39;3.50;;;1.80;;
80776;SDS011;70169;51.262;6.336;2023-08-06T02:03:55;2.70;;;1.37;;
80776;SDS011;70169;51.262;6.336;2023-08-06T02:06:10;2.80;;;1.67;;
80776;SDS011;70169;51.262;6.336;2023-08-06T02:08:26;2.93;;;1.40;;
80776;SDS011;70169;51.262;6.336;2023-08-06T02:10:42;2.55;;;1.48;;
80776;SDS011;70169;51.262;6.336;2023-08-06T02:12:57;2.60;;;1.37;;
80776;SDS011;70169;51.262;6.336;2023-08-06T02:15:13;2.93;;;1.50;;
80776;SDS011;70169;51.262;6.336;2023-08-06T02:17:28;3.50;;;1.50;;
80776;SDS011;70169;51.262;6.336;2023-08-06T02:19:43;2.50;;;1.30;;
80776;SDS011;70169;51.262;6.336;2023-08-06T02:21:59;2.57;;;1.53;;
80776;SDS011;70169;51.262;6.336;2023-08-06T02:24:14;2.88;;;1.60;;
80776;SDS011;70169;51.262;6.336;2023-08-06T02:26:29;3.43;;;1.50;;
80776;SDS011;70169;51.262;6.336;2023-08-06T02:28:45;2.83;;;1.47;;
80776;SDS011;70169;51.262;6.336;2023-08-06T02:31:00;3.20;;;1.70;;
80776;SDS011;70169;51.262;6.336;2023-08-06T02:33:15;2.80;;;1.50;;
80776;SDS011;70169;51.262;6.336;2023-08-06T02:35:30;3.00;;;1.33;;
80776;SDS011;70169;51.262;6.336;2023-08-06T02:37:46;3.17;;;1.70;;
80776;SDS011;70169;51.262;6.336;2023-08-06T02:40:01;3.50;;;1.60;;
80776;SDS011;70169;51.262;6.336;2023-08-06T02:42:17;3.30;;;1.80;;
80776;SDS011;70169;51.262;6.336;2023-08-06T02:44:32;3.57;;;1.63;;
80776;SDS011;70169;51.262;6.336;2023-08-06T02:46:48;3.35;;;1.67;;
80776;SDS011;70169;51.262;6.336;2023-08-06T02:49:03;2.87;;;1.57;;
80776;SDS011;70169;51.262;6.336;2023-08-06T02:51:19;2.63;;;1.53;;
80776;SDS011;70169;51.262;6.336;2023-08-06T02:53:34;3.23;;;1.80;;
80776;SDS011;70169;51.262;6.336;2023-08-06T02:55:49;3.37;;;1.30;;
80776;SDS011;70169;51.262;6.336;2023-08-06T02:58:05;2.75;;;1.45;;
80776;SDS011;70169;51.262;6.336;2023-08-06T03:00:20;2.67;;;1.60;;
80776;SDS011;70169;51.262;6.336;2023-08-06T03:02:36;2.67;;;1.47;;
80776;SDS011;70169;51.262;6.336;2023-08-06T03:04:51;2.97;;;1.60;;
80776;SDS011;70169;51.262;6.336;2023-08-06T03:07:06;3.40;;;1.60;;
80776;SDS011;70169;51.262;6.336;2023-08-06T03:09:22;2.43;;;1.40;;
80776;SDS011;70169;51.262;6.336;2023-08-06T03:11:37;2.20;;;1.10;;
80776;SDS011;70169;51.262;6.336;2023-08-06T03:13:52;2.60;;;1.43;;
80776;SDS011;70169;51.262;6.336;2023-08-06T03:16:07;2.77;;;1.47;;
80776;SDS011;70169;51.262;6.336;2023-08-06T03:18:23;2.23;;;1.10;;
80776;SDS011;70169;51.262;6.336;2023-08-06T03:20:38;2.47;;;1.38;;
80776;SDS011;70169;51.262;6.336;2023-08-06T03:22:54;2.30;;;1.10;;
80776;SDS011;70169;51.262;6.336;2023-08-06T03:25:09;3.10;;;1.47;;
80776;SDS011;70169;51.262;6.336;2023-08-06T03:27:24;2.20;;;1.20;;
80776;SDS011;70169;51.262;6.336;2023-08-06T03:29:39;2.53;;;1.20;;
80776;SDS011;70169;51.262;6.336;2023-08-06T03:31:55;2.60;;;1.35;;
80776;SDS011;70169;51.262;6.336;2023-08-06T03:34:10;2.70;;;1.23;;
80776;SDS011;70169;51.262;6.336;2023-08-06T03:36:25;2.70;;;1.33;;
80776;SDS011;70169;51.262;6.336;2023-08-06T03:38:41;2.42;;;1.30;;
80776;SDS011;70169;51.262;6.336;2023-08-06T03:40:56;2.37;;;1.30;;
80776;SDS011;70169;51.262;6.336;2023-08-06T03:43:11;2.70;;;1.08;;
80776;SDS011;70169;51.262;6.336;2023-08-06T03:45:27;2.63;;;1.27;;
80776;SDS011;70169;51.262;6.336;2023-08-06T03:47:42;2.60;;;1.20;;
80776;SDS011;70169;51.262;6.336;2023-08-06T03:49:58;2.73;;;1.33;;
80776;SDS011;70169;51.262;6.336;2023-08-06T03:52:13;2.50;;;1.23;;
80776;SDS011;70169;51.262;6.336;2023-08-06T03:54:28;2.00;;;1.07;;
80776;SDS011;70169;51.262;6.336;2023-08-06T03:56:45;1.75;;;0.90;;
80776;SDS011;70169;51.262;6.336;2023-08-06T03:59:00;2.58;;;1.30;;
80776;SDS011;70169;51.262;6.336;2023-08-06T04:01:15;3.17;;;1.47;;
80776;SDS011;70169;51.262;6.336;2023-08-06T04:03:30;2.43;;;1.20;;
80776;SDS011;70169;51.262;6.336;2023-08-06T04:05:46;2.50;;;1.50;;
80776;SDS011;70169;51.262;6.336;2023-08-06T04:08:01;2.37;;;1.27;;
80776;SDS011;70169;51.262;6.336;2023-08-06T04:10:16;3.37;;;1.37;;
80776;SDS011;70169;51.262;6.336;2023-08-06T04:12:32;2.50;;;1.37;;
80776;SDS011;70169;51.262;6.336;2023-08-06T04:14:51;2.63;;;1.42;;
80776;SDS011;70169;51.262;6.336;2023-08-06T04:17:07;3.00;;;1.40;;
80776;SDS011;70169;51.262;6.336;2023-08-06T04:19:22;2.50;;;1.17;;
80776;SDS011;70169;51.262;6.336;2023-08-06T04:21:37;2.97;;;1.50;;
80776;SDS011;70169;51.262;6.336;2023-08-06T04:23:53;2.50;;;1.30;;
80776;SDS011;70169;51.262;6.336;2023-08-06T04:26:08;2.73;;;1.30;;
80776;SDS011;70169;51.262;6.336;2023-08-06T04:28:23;3.13;;;1.40;;
80776;SDS011;70169;51.262;6.336;2023-08-06T04:30:39;3.03;;;1.53;;
80776;SDS011;70169;51.262;6.336;2023-08-06T04:32:56;3.00;;;1.47;;
80776;SDS011;70169;51.262;6.336;2023-08-06T04:35:11;3.45;;;1.40;;
80776;SDS011;70169;51.262;6.336;2023-08-06T04:37:27;3.03;;;1.53;;
80776;SDS011;70169;51.262;6.336;2023-08-06T04:39:42;2.83;;;1.33;;
80776;SDS011;70169;51.262;6.336;2023-08-06T04:41:57;2.60;;;1.23;;
80776;SDS011;70169;51.262;6.336;2023-08-06T04:44:13;2.58;;;1.30;;
80776;SDS011;70169;51.262;6.336;2023-08-06T04:46:28;2.47;;;1.30;;
80776;SDS011;70169;51.262;6.336;2023-08-06T04:48:43;3.03;;;1.73;;
80776;SDS011;70169;51.262;6.336;2023-08-06T04:50:59;3.70;;;1.70;;
80776;SDS011;70169;51.262;6.336;2023-08-06T04:53:14;3.25;;;1.63;;
80776;SDS011;70169;51.262;6.336;2023-08-06T04:55:30;2.97;;;1.70;;
80776;SDS011;70169;51.262;6.336;2023-08-06T04:57:45;3.57;;;1.80;;
80776;SDS011;70169;51.262;6.336;2023-08-06T05:00:01;3.40;;;1.80;;
80776;SDS011;70169;51.262;6.336;2023-08-06T05:02:16;3.10;;;1.60;;
80776;SDS011;70169;51.262;6.336;2023-08-06T05:04:31;4.38;;;1.83;;
80776;SDS011;70169;51.262;6.336;2023-08-06T05:06:48;2.88;;;1.63;;
80776;SDS011;70169;51.262;6.336;2023-08-06T05:09:03;2.90;;;1.58;;
80776;SDS011;70169;51.262;6.336;2023-08-06T05:11:19;3.08;;;1.50;;
80776;SDS011;70169;51.262;6.336;2023-08-06T05:13:35;3.30;;;1.77;;
80776;SDS011;70169;51.262;6.336;2023-08-06T05:15:50;3.30;;;1.70;;
80776;SDS011;70169;51.262;6.336;2023-08-06T05:18:08;3.78;;;1.70;;
80776;SDS011;70169;51.262;6.336;2023-08-06T05:20:24;2.95;;;1.70;;
80776;SDS011;70169;51.262;6.336;2023-08-06T05:22:39;2.70;;;1.47;;
80776;SDS011;70169;51.262;6.336;2023-08-06T05:24:54;3.03;;;1.50;;
80776;SDS011;70169;51.262;6.336;2023-08-06T05:27:10;4.37;;;2.00;;
80776;SDS011;70169;51.262;6.336;2023-08-06T05:29:25;4.00;;;2.50;;
80776;SDS011;70169;51.262;6.336;2023-08-06T05:33:57;3.35;;;1.95;;
80776;SDS011;70169;51.262;6.336;2023-08-06T05:36:12;3.57;;;2.17;;
80776;SDS011;70169;51.262;6.336;2023-08-06T05:38:29;3.25;;;1.92;;
80776;SDS011;70169;51.262;6.336;2023-08-06T05:40:45;3.63;;;1.80;;
80776;SDS011;70169;51.262;6.336;2023-08-06T05:43:00;3.95;;;2.10;;
80776;SDS011;70169;51.262;6.336;2023-08-06T05:45:15;3.60;;;2.00;;
80776;SDS011;70169;51.262;6.336;2023-08-06T05:47:31;3.00;;;1.98;;
80776;SDS011;70169;51.262;6.336;2023-08-06T05:49:46;2.97;;;1.60;;
80776;SDS011;70169;51.262;6.336;2023-08-06T05:52:01;4.60;;;2.00;;
80776;SDS011;70169;51.262;6.336;2023-08-06T05:54:21;2.83;;;1.40;;
80776;SDS011;70169;51.262;6.336;2023-08-06T05:56:36;3.13;;;1.70;;
80776;SDS011;70169;51.262;6.336;2023-08-06T05:58:51;2.70;;;1.40;;
80776;SDS011;70169;51.262;6.336;2023-08-06T06:01:08;2.53;;;1.52;;
80776;SDS011;70169;51.262;6.336;2023-08-06T06:03:23;3.13;;;1.57;;
80776;SDS011;70169;51.262;6.336;2023-08-06T06:05:38;2.53;;;1.40;;
80776;SDS011;70169;51.262;6.336;2023-08-06T06:07:54;2.80;;;1.40;;
80776;SDS011;70169;51.262;6.336;2023-08-06T06:10:09;2.45;;;1.20;;
80776;SDS011;70169;51.262;6.336;2023-08-06T06:12:24;2.10;;;1.10;;
80776;SDS011;70169;51.262;6.336;2023-08-06T06:14:41;2.50;;;1.20;;
80776;SDS011;70169;51.262;6.336;2023-08-06T06:16:56;2.17;;;1.00;;
80776;SDS011;70169;51.262;6.336;2023-08-06T06:19:12;2.20;;;1.02;;
80776;SDS011;70169;51.262;6.336;2023-08-06T06:21:27;1.98;;;0.98;;
80776;SDS011;70169;51.262;6.336;2023-08-06T06:23:42;2.20;;;1.20;;
80776;SDS011;70169;51.262;6.336;2023-08-06T06:25:59;1.90;;;0.93;;
80776;SDS011;70169;51.262;6.336;2023-08-06T06:30:30;1.50;;;0.70;;
80776;SDS011;70169;51.262;6.336;2023-08-06T06:32:45;2.23;;;1.03;;
80776;SDS011;70169;51.262;6.336;2023-08-06T06:35:00;1.73;;;0.80;;
80776;SDS011;70169;51.262;6.336;2023-08-06T06:37:16;1.50;;;0.68;;
80776;SDS011;70169;51.262;6.336;2023-08-06T06:39:31;1.80;;;0.80;;
80776;SDS011;70169;51.262;6.336;2023-08-06T06:41:46;2.33;;;0.77;;
80776;SDS011;70169;51.262;6.336;2023-08-06T06:44:01;1.40;;;0.70;;
80776;SDS011;70169;51.262;6.336;2023-08-06T06:46:17;1.10;;;0.47;;
80776;SDS011;70169;51.262;6.336;2023-08-06T06:48:32;1.73;;;0.70;;
80776;SDS011;70169;51.262;6.336;2023-08-06T06:50:48;1.27;;;0.70;;
80776;SDS011;70169;51.262;6.336;2023-08-06T06:53:03;1.50;;;0.77;;
80776;SDS011;70169;51.262;6.336;2023-08-06T06:55:19;1.50;;;0.70;;
80776;SDS011;70169;51.262;6.336;2023-08-06T06:57:34;1.50;;;0.53;;
80776;SDS011;70169;51.262;6.336;2023-08-06T06:59:49;2.00;;;0.80;;
80776;SDS011;70169;51.262;6.336;2023-08-06T07:02:05;2.03;;;0.60;;
80776;SDS011;70169;51.262;6.336;2023-08-06T07:04:20;1.02;;;0.60;;
80776;SDS011;70169;51.262;6.336;2023-08-06T07:06:36;1.27;;;0.60;;
80776;SDS011;70169;51.262;6.336;2023-08-06T07:08:51;1.37;;;0.77;;
80776;SDS011;70169;51.262;6.336;2023-08-06T07:11:07;1.70;;;0.80;;
80776;SDS011;70169;51.262;6.336;2023-08-06T07:13:22;1.97;;;0.83;;
80776;SDS011;70169;51.262;6.336;2023-08-06T07:15:37;1.60;;;0.90;;
80776;SDS011;70169;51.262;6.336;2023-08-06T07:17:53;2.27;;;1.10;;
80776;SDS011;70169;51.262;6.336;2023-08-06T07:20:08;1.97;;;1.00;;
80776;SDS011;70169;51.262;6.336;2023-08-06T07:22:23;3.28;;;1.30;;
80776;SDS011;70169;51.262;6.336;2023-08-06T07:24:39;1.93;;;0.83;;
80776;SDS011;70169;51.262;6.336;2023-08-06T07:26:54;1.90;;;1.00;;
80776;SDS011;70169;51.262;6.336;2023-08-06T07:29:09;2.67;;;1.00;;
80776;SDS011;70169;51.262;6.336;2023-08-06T07:31:25;2.00;;;0.73;;
80776;SDS011;70169;51.262;6.336;2023-08-06T07:33:40;2.33;;;1.10;;
80776;SDS011;70169;51.262;6.336;2023-08-06T07:35:56;1.83;;;1.03;;
80776;SDS011;70169;51.262;6.336;2023-08-06T07:38:11;2.00;;;1.00;;
80776;SDS011;70169;51.262;6.336;2023-08-06T07:40:26;2.53;;;1.60;;
80776;SDS011;70169;51.262;6.336;2023-08-06T07:42:42;2.40;;;1.40;;
80776;SDS011;70169;51.262;6.336;2023-08-06T07:44:58;3.17;;;1.37;;
80776;SDS011;70169;51.262;6.336;2023-08-06T07:47:14;3.45;;;1.80;;
80776;SDS011;70169;51.262;6.336;2023-08-06T07:49:29;3.10;;;2.00;;
80776;SDS011;70169;51.262;6.336;2023-08-06T07:51:44;3.10;;;1.53;;
80776;SDS011;70169;51.262;6.336;2023-08-06T07:54:00;2.70;;;1.60;;
80776;SDS011;70169;51.262;6.336;2023-08-06T07:56:15;2.37;;;1.17;;
80776;SDS011;70169;51.262;6.336;2023-08-06T07:58:30;4.57;;;2.07;;
80776;SDS011;70169;51.262;6.336;2023-08-06T08:00:46;2.97;;;1.70;;
80776;SDS011;70169;51.262;6.336;2023-08-06T08:03:02;4.53;;;1.70;;
80776;SDS011;70169;51.262;6.336;2023-08-06T08:05:17;2.65;;;1.55;;
80776;SDS011;70169;51.262;6.336;2023-08-06T08:07:33;2.50;;;1.40;;
80776;SDS011;70169;51.262;6.336;2023-08-06T08:09:48;2.50;;;1.57;;
80776;SDS011;70169;51.262;6.336;2023-08-06T08:12:03;4.80;;;2.13;;
80776;SDS011;70169;51.262;6.336;2023-08-06T08:14:19;3.10;;;2.00;;
80776;SDS011;70169;51.262;6.336;2023-08-06T08:16:34;4.13;;;2.00;;
80776;SDS011;70169;51.262;6.336;2023-08-06T08:18:49;3.87;;;2.13;;
80776;SDS011;70169;51.262;6.336;2023-08-06T08:21:05;2.57;;;1.60;;
80776;SDS011;70169;51.262;6.336;2023-08-06T08:23:20;2.70;;;1.85;;
80776;SDS011;70169;51.262;6.336;2023-08-06T08:25:36;3.57;;;2.00;;
80776;SDS011;70169;51.262;6.336;2023-08-06T08:27:51;2.80;;;1.67;;
80776;SDS011;70169;51.262;6.336;2023-08-06T08:30:06;3.20;;;1.90;;
80776;SDS011;70169;51.262;6.336;2023-08-06T08:32:22;6.30;;;2.60;;
80776;SDS011;70169;51.262;6.336;2023-08-06T08:34:38;4.80;;;2.50;;
80776;SDS011;70169;51.262;6.336;2023-08-06T08:36:53;3.03;;;2.00;;
80776;SDS011;70169;51.262;6.336;2023-08-06T08:39:09;3.80;;;2.37;;
80776;SDS011;70169;51.262;6.336;2023-08-06T08:41:24;3.50;;;2.00;;
80776;SDS011;70169;51.262;6.336;2023-08-06T08:43:40;3.25;;;2.17;;
80776;SDS011;70169;51.262;6.336;2023-08-06T08:45:57;4.15;;;2.53;;
80776;SDS011;70169;51.262;6.336;2023-08-06T08:48:13;3.67;;;1.73;;
80776;SDS011;70169;51.262;6.336;2023-08-06T08:50:29;3.83;;;1.70;;
80776;SDS011;70169;51.262;6.336;2023-08-06T08:52:45;4.13;;;2.05;;
80776;SDS011;70169;51.262;6.336;2023-08-06T08:55:00;4.28;;;1.73;;
80776;SDS011;70169;51.262;6.336;2023-08-06T08:57:16;3.30;;;1.80;;
80776;SDS011;70169;51.262;6.336;2023-08-06T08:59:33;3.67;;;1.70;;
80776;SDS011;70169;51.262;6.336;2023-08-06T09:01:48;4.28;;;1.40;;
80776;SDS011;70169;51.262;6.336;2023-08-06T09:04:06;4.05;;;1.40;;
80776;SDS011;70169;51.262;6.336;2023-08-06T09:06:23;3.72;;;1.70;;
80776;SDS011;70169;51.262;6.336;2023-08-06T09:08:41;2.92;;;1.50;;
80776;SDS011;70169;51.262;6.336;2023-08-06T09:11:02;3.97;;;2.17;;
80776;SDS011;70169;51.262;6.336;2023-08-06T09:13:19;4.03;;;2.22;;
80776;SDS011;70169;51.262;6.336;2023-08-06T09:17:54;3.97;;;2.00;;
80776;SDS011;70169;51.262;6.336;2023-08-06T09:20:10;4.70;;;2.20;;
80776;SDS011;70169;51.262;6.336;2023-08-06T09:22:33;2.70;;;1.65;;
80776;SDS011;70169;51.262;6.336;2023-08-06T09:24:50;3.00;;;1.52;;
80776;SDS011;70169;51.262;6.336;2023-08-06T09:27:06;2.33;;;1.40;;
80776;SDS011;70169;51.262;6.336;2023-08-06T09:29:26;2.70;;;1.33;;
80776;SDS011;70169;51.262;6.336;2023-08-06T09:31:48;4.28;;;1.50;;
80776;SDS011;70169;51.262;6.336;2023-08-06T09:34:10;2.53;;;1.45;;
80776;SDS011;70169;51.262;6.336;2023-08-06T09:36:32;2.83;;;1.30;;
80776;SDS011;70169;51.262;6.336;2023-08-06T09:38:47;1.77;;;1.10;;
80776;SDS011;70169;51.262;6.336;2023-08-06T09:41:02;3.17;;;1.10;;
80776;SDS011;70169;51.262;6.336;2023-08-06T09:43:18;2.40;;;1.20;;
80776;SDS011;70169;51.262;6.336;2023-08-06T09:45:35;2.00;;;1.10;;
80776;SDS011;70169;51.262;6.336;2023-08-06T09:47:55;1.95;;;1.02;;
80776;SDS011;70169;51.262;6.336;2023-08-06T09:50:14;2.65;;;1.10;;
80776;SDS011;70169;51.262;6.336;2023-08-06T09:52:31;1.88;;;1.10;;
80776;SDS011;70169;51.262;6.336;2023-08-06T09:54:47;2.47;;;1.30;;
80776;SDS011;70169;51.262;6.336;2023-08-06T09:57:03;2.42;;;1.20;;
80776;SDS011;70169;51.262;6.336;2023-08-06T10:01:36;2.97;;;1.60;;
80776;SDS011;70169;51.262;6.336;2023-08-06T10:03:52;2.55;;;1.48;;
80776;SDS011;70169;51.262;6.336;2023-08-06T10:06:09;2.55;;;1.45;;
80776;SDS011;70169;51.262;6.336;2023-08-06T10:08:25;2.50;;;1.40;;
80776;SDS011;70169;51.262;6.336;2023-08-06T10:10:40;3.60;;;1.50;;
80776;SDS011;70169;51.262;6.336;2023-08-06T10:12:56;4.22;;;1.67;;
80776;SDS011;70169;51.262;6.336;2023-08-06T10:15:15;3.40;;;1.67;;
80776;SDS011;70169;51.262;6.336;2023-08-06T10:17:33;3.38;;;1.65;;
80776;SDS011;70169;51.262;6.336;2023-08-06T10:19:50;2.63;;;1.42;;
80776;SDS011;70169;51.262;6.336;2023-08-06T10:22:10;2.75;;;1.20;;
80776;SDS011;70169;51.262;6.336;2023-08-06T10:24:45;2.70;;;1.20;;
80776;SDS011;70169;51.262;6.336;2023-08-06T10:27:00;2.90;;;1.55;;
80776;SDS011;70169;51.262;6.336;2023-08-06T10:31:54;2.40;;;1.35;;
80776;SDS011;70169;51.262;6.336;2023-08-06T10:34:13;2.90;;;1.40;;
80776;SDS011;70169;51.262;6.336;2023-08-06T10:36:31;4.18;;;2.10;;
80776;SDS011;70169;51.262;6.336;2023-08-06T10:38:48;4.03;;;1.80;;
80776;SDS011;70169;51.262;6.336;2023-08-06T10:41:04;4.45;;;1.92;;
80776;SDS011;70169;51.262;6.336;2023-08-06T10:43:32;4.07;;;1.90;;
80776;SDS011;70169;51.262;6.336;2023-08-06T10:45:49;6.43;;;2.75;;
80776;SDS011;70169;51.262;6.336;2023-08-06T10:48:05;5.45;;;2.75;;
80776;SDS011;70169;51.262;6.336;2023-08-06T10:50:20;4.82;;;2.15;;
80776;SDS011;70169;51.262;6.336;2023-08-06T10:52:35;4.30;;;2.60;;
80776;SDS011;70169;51.262;6.336;2023-08-06T10:54:51;4.13;;;2.33;;
80776;SDS011;70169;51.262;6.336;2023-08-06T10:57:09;7.35;;;3.00;;
80776;SDS011;70169;51.262;6.336;2023-08-06T10:59:25;6.90;;;2.85;;
80776;SDS011;70169;51.262;6.336;2023-08-06T11:01:40;4.23;;;2.37;;
80776;SDS011;70169;51.262;6.336;2023-08-06T11:04:00;4.82;;;2.40;;
80776;SDS011;70169;51.262;6.336;2023-08-06T11:06:17;4.72;;;2.40;;
80776;SDS011;70169;51.262;6.336;2023-08-06T11:08:35;5.00;;;2.80;;
80776;SDS011;70169;51.262;6.336;2023-08-06T11:10:51;6.18;;;3.30;;
80776;SDS011;70169;51.262;6.336;2023-08-06T11:13:07;5.37;;;2.50;;
80776;SDS011;70169;51.262;6.336;2023-08-06T11:15:22;5.80;;;3.10;;
80776;SDS011;70169;51.262;6.336;2023-08-06T11:17:39;4.20;;;2.33;;
80776;SDS011;70169;51.262;6.336;2023-08-06T11:19:56;5.75;;;2.97;;
80776;SDS011;70169;51.262;6.336;2023-08-06T11:22:17;7.03;;;3.03;;
80776;SDS011;70169;51.262;6.336;2023-08-06T11:24:33;4.93;;;2.33;;
80776;SDS011;70169;51.262;6.336;2023-08-06T11:26:48;4.33;;;2.43;;
80776;SDS011;70169;51.262;6.336;2023-08-06T11:29:03;4.53;;;2.30;;
80776;SDS011;70169;51.262;6.336;2023-08-06T11:31:19;6.00;;;2.40;;
80776;SDS011;70169;51.262;6.336;2023-08-06T11:35:51;4.50;;;2.30;;
80776;SDS011;70169;51.262;6.336;2023-08-06T11:38:11;5.38;;;2.50;;
80776;SDS011;70169;51.262;6.336;2023-08-06T11:40:28;5.57;;;2.88;;
80776;SDS011;70169;51.262;6.336;2023-08-06T11:42:44;4.55;;;2.20;;
80776;SDS011;70169;51.262;6.336;2023-08-06T11:45:02;6.03;;;2.55;;
80776;SDS011;70169;51.262;6.336;2023-08-06T11:47:17;6.80;;;2.80;;
80776;SDS011;70169;51.262;6.336;2023-08-06T11:51:59;5.32;;;2.28;;
80776;SDS011;70169;51.262;6.336;2023-08-06T11:54:14;4.93;;;1.90;;
80776;SDS011;70169;51.262;6.336;2023-08-06T11:56:30;3.33;;;2.00;;
80776;SDS011;70169;51.262;6.336;2023-08-06T11:58:45;4.70;;;2.00;;
80776;SDS011;70169;51.262;6.336;2023-08-06T12:01:00;5.27;;;2.17;;
80776;SDS011;70169;51.262;6.336;2023-08-06T12:03:18;4.13;;;2.33;;
80776;SDS011;70169;51.262;6.336;2023-08-06T12:05:34;5.28;;;2.08;;
80776;SDS011;70169;51.262;6.336;2023-08-06T12:07:51;3.43;;;1.90;;
80776;SDS011;70169;51.262;6.336;2023-08-06T12:10:07;5.43;;;2.15;;
80776;SDS011;70169;51.262;6.336;2023-08-06T12:12:23;4.20;;;1.98;;
80776;SDS011;70169;51.262;6.336;2023-08-06T12:14:39;4.63;;;1.90;;
80776;SDS011;70169;51.262;6.336;2023-08-06T12:16:54;4.23;;;2.00;;
80776;SDS011;70169;51.262;6.336;2023-08-06T12:19:10;4.00;;;1.80;;
80776;SDS011;70169;51.262;6.336;2023-08-06T12:21:25;3.50;;;1.80;;
80776;SDS011;70169;51.262;6.336;2023-08-06T12:23:40;3.50;;;1.60;;
80776;SDS011;70169;51.262;6.336;2023-08-06T12:25:56;3.30;;;1.70;;
80776;SDS011;70169;51.262;6.336;2023-08-06T12:28:11;5.22;;;1.83;;
80776;SDS011;70169;51.262;6.336;2023-08-06T12:30:28;5.72;;;2.17;;
80776;SDS011;70169;51.262;6.336;2023-08-06T12:32:43;5.93;;;2.03;;
80776;SDS011;70169;51.262;6.336;2023-08-06T12:34:58;4.57;;;1.80;;
80776;SDS011;70169;51.262;6.336;2023-08-06T12:37:14;4.30;;;1.77;;
80776;SDS011;70169;51.262;6.336;2023-08-06T12:39:29;4.57;;;2.20;;
80776;SDS011;70169;51.262;6.336;2023-08-06T12:41:46;6.20;;;1.80;;
80776;SDS011;70169;51.262;6.336;2023-08-06T12:44:01;4.80;;;1.80;;
80776;SDS011;70169;51.262;6.336;2023-08-06T12:46:17;4.43;;;1.83;;
80776;SDS011;70169;51.262;6.336;2023-08-06T12:48:32;4.20;;;1.73;;
80776;SDS011;70169;51.262;6.336;2023-08-06T12:50:47;4.10;;;2.20;;
80776;SDS011;70169;51.262;6.336;2023-08-06T12:53:04;4.55;;;1.92;;
80776;SDS011;70169;51.262;6.336;2023-08-06T12:55:20;5.78;;;2.20;;
80776;SDS011;70169;51.262;6.336;2023-08-06T12:57:35;6.97;;;2.50;;
80776;SDS011;70169;51.262;6.336;2023-08-06T12:59:51;6.17;;;2.37;;
80776;SDS011;70169;51.262;6.336;2023-08-06T13:02:06;5.80;;;2.67;;
80776;SDS011;70169;51.262;6.336;2023-08-06T13:04:21;4.82;;;2.40;;
80776;SDS011;70169;51.262;6.336;2023-08-06T13:06:37;5.50;;;1.90;;
80776;SDS011;70169;51.262;6.336;2023-08-06T13:08:54;4.50;;;1.98;;
80776;SDS011;70169;51.262;6.336;2023-08-06T13:11:09;4.50;;;2.37;;
80776;SDS011;70169;51.262;6.336;2023-08-06T13:13:25;3.95;;;2.15;;
80776;SDS011;70169;51.262;6.336;2023-08-06T13:17:57;4.60;;;2.20;;
80776;SDS011;70169;51.262;6.336;2023-08-06T13:20:12;4.07;;;2.07;;
80776;SDS011;70169;51.262;6.336;2023-08-06T13:22:27;4.70;;;2.38;;
80776;SDS011;70169;51.262;6.336;2023-08-06T13:24:43;5.63;;;2.63;;
80776;SDS011;70169;51.262;6.336;2023-08-06T13:26:58;5.57;;;2.60;;
80776;SDS011;70169;51.262;6.336;2023-08-06T13:29:13;6.00;;;2.90;;
80776;SDS011;70169;51.262;6.336;2023-08-06T13:31:29;6.07;;;3.00;;
80776;SDS011;70169;51.262;6.336;2023-08-06T13:33:44;4.57;;;2.70;;
80776;SDS011;70169;51.262;6.336;2023-08-06T13:36:00;6.93;;;3.20;;
80776;SDS011;70169;51.262;6.336;2023-08-06T13:38:15;4.47;;;2.13;;
80776;SDS011;70169;51.262;6.336;2023-08-06T13:40:33;7.50;;;3.07;;
80776;SDS011;70169;51.262;6.336;2023-08-06T13:42:49;5.88;;;2.78;;
80776;SDS011;70169;51.262;6.336;2023-08-06T13:45:04;6.43;;;3.00;;
80776;SDS011;70169;51.262;6.336;2023-08-06T13:47:21;5.72;;;3.47;;
80776;SDS011;70169;51.262;6.336;2023-08-06T13:49:36;6.97;;;3.03;;
80776;SDS011;70169;51.262;6.336;2023-08-06T13:51:52;6.57;;;3.13;;
80776;SDS011;70169;51.262;6.336;2023-08-06T13:54:07;6.50;;;3.42;;
80776;SDS011;70169;51.262;6.336;2023-08-06T13:56:23;6.13;;;2.92;;
80776;SDS011;70169;51.262;6.336;2023-08-06T13:58:38;6.18;;;2.95;;
80776;SDS011;70169;51.262;6.336;2023-08-06T14:00:54;5.75;;;2.92;;
80776;SDS011;70169;51.262;6.336;2023-08-06T14:03:09;6.47;;;2.70;;
80776;SDS011;70169;51.262;6.336;2023-08-06T14:05:24;4.97;;;2.80;;